createdAt,value
2023-02-06T00:01:47.963Z,27.88
2023-02-06T00:04:14.860Z,39.28
2023-02-06T00:06:42.607Z,29.55
2023-02-06T00:09:09.937Z,22.77
2023-02-06T00:11:36.630Z,22.52
2023-02-06T00:14:03.810Z,42.50
2023-02-06T00:16:32.627Z,22.02
2023-02-06T00:19:00.039Z,38.40
2023-02-06T00:21:28.604Z,31.60
2023-02-06T00:23:57.818Z,37.38
2023-02-06T00:26:25.391Z,29.58
2023-02-06T00:28:52.356Z,36.47
2023-02-06T00:31:19.210Z,19.08
2023-02-06T00:33:45.929Z,42.63
2023-02-06T00:36:12.648Z,24.27
2023-02-06T00:38:39.703Z,32.67
2023-02-06T00:41:06.973Z,33.92
2023-02-06T00:43:34.158Z,31.10
2023-02-06T00:46:02.422Z,34.45
2023-02-06T00:48:30.296Z,32.00
2023-02-06T00:50:56.928Z,18.85
2023-02-06T00:53:23.646Z,34.00
2023-02-06T00:55:50.384Z,30.52
2023-02-06T00:58:19.707Z,31.70
2023-02-06T01:00:46.353Z,32.42
2023-02-06T01:03:13.177Z,23.70
2023-02-06T01:05:40.010Z,35.92
2023-02-06T01:08:06.731Z,19.88
2023-02-06T01:10:33.874Z,27.67
2023-02-06T01:13:00.869Z,27.50
2023-02-06T01:15:27.792Z,25.95
2023-02-06T01:17:54.537Z,33.08
2023-02-06T01:20:22.899Z,35.40
2023-02-06T01:22:49.556Z,35.97
2023-02-06T01:25:16.316Z,22.38
2023-02-06T01:27:43.055Z,33.22
2023-02-06T01:30:11.054Z,28.65
2023-02-06T01:32:39.778Z,40.47
2023-02-06T01:35:08.524Z,23.77
2023-02-06T01:37:36.059Z,32.47
2023-02-06T01:40:03.707Z,25.33
2023-02-06T01:42:30.426Z,30.65
2023-02-06T01:45:28.416Z,43.95
2023-02-06T01:48:03.056Z,27.80
2023-02-06T01:52:59.052Z,37.28
2023-02-06T01:55:26.033Z,28.70
2023-02-06T01:57:52.824Z,31.23
2023-02-06T02:00:20.054Z,20.05
2023-02-06T02:02:51.056Z,30.52
2023-02-06T02:05:19.391Z,31.98
2023-02-06T02:08:01.969Z,28.63
2023-02-06T02:10:30.444Z,34.58
2023-02-06T02:12:57.339Z,45.15
2023-02-06T02:15:39.976Z,32.25
2023-02-06T02:18:19.474Z,35.15
2023-02-06T02:21:11.855Z,33.03
2023-02-06T02:23:55.618Z,36.20
2023-02-06T02:26:54.753Z,32.72
2023-02-06T02:29:49.033Z,32.88
2023-02-06T02:32:30.911Z,27.23
2023-02-06T02:35:07.508Z,15.70
2023-02-06T02:38:05.251Z,42.13
2023-02-06T02:40:55.389Z,24.85
2023-02-06T02:43:50.147Z,32.83
2023-02-06T02:46:40.867Z,28.98
2023-02-06T02:49:21.064Z,23.05
2023-02-06T02:51:49.216Z,38.60
2023-02-06T02:54:15.954Z,23.33
2023-02-06T02:56:42.859Z,31.27
2023-02-06T02:59:26.730Z,28.92
2023-02-06T03:02:03.596Z,29.98
2023-02-06T03:04:45.998Z,23.48
2023-02-06T03:07:35.747Z,41.85
2023-02-06T03:10:21.421Z,21.23
2023-02-06T03:13:22.070Z,28.88
2023-02-06T03:15:57.553Z,24.05
2023-02-06T03:18:35.065Z,22.30
2023-02-06T03:21:05.542Z,19.77
2023-02-06T03:23:38.006Z,22.60
2023-02-06T03:26:22.409Z,32.28
2023-02-06T03:28:53.803Z,28.90
2023-02-06T03:31:30.767Z,23.50
2023-02-06T03:34:29.416Z,29.55
2023-02-06T03:36:56.409Z,28.30
2023-02-06T03:39:23.530Z,17.27
2023-02-06T03:41:53.375Z,25.25
2023-02-06T03:44:26.276Z,18.73
2023-02-06T03:46:55.023Z,25.55
2023-02-06T03:49:25.405Z,13.88
2023-02-06T03:52:04.133Z,21.90
2023-02-06T03:54:32.317Z,18.95
2023-02-06T03:57:02.738Z,29.73
2023-02-06T03:59:31.345Z,21.42
2023-02-06T04:02:00.986Z,26.95
2023-02-06T04:04:37.648Z,13.63
2023-02-06T04:07:15.654Z,25.75
2023-02-06T04:09:42.365Z,24.08
2023-02-06T04:12:09.635Z,24.52
2023-02-06T04:14:36.890Z,29.73
2023-02-06T04:17:04.676Z,22.20
2023-02-06T04:19:31.758Z,25.10
2023-02-06T04:21:58.716Z,19.85
2023-02-06T04:24:25.432Z,25.55
2023-02-06T04:26:52.240Z,27.75
2023-02-06T04:29:18.931Z,19.88
2023-02-06T04:31:45.664Z,16.05
2023-02-06T04:34:12.497Z,32.92
2023-02-06T04:36:39.472Z,23.15
2023-02-06T04:39:07.209Z,20.98
2023-02-06T04:41:34.261Z,23.73
2023-02-06T04:44:00.937Z,17.88
2023-02-06T04:46:27.728Z,20.60
2023-02-06T04:48:54.385Z,32.63
2023-02-06T04:51:21.094Z,17.77
2023-02-06T04:53:47.692Z,17.98
2023-02-06T04:56:14.360Z,18.48
2023-02-06T04:58:41.248Z,20.73
2023-02-06T05:01:07.954Z,8.88
2023-02-06T05:03:34.632Z,21.85
2023-02-06T05:06:02.780Z,21.10
2023-02-06T05:08:29.977Z,32.15
2023-02-06T05:10:57.475Z,13.18
2023-02-06T05:13:24.329Z,27.65
2023-02-06T05:15:51.072Z,19.83
2023-02-06T05:18:18.294Z,27.17
2023-02-06T05:20:45.651Z,32.10
2023-02-06T05:23:12.386Z,28.42
2023-02-06T05:25:41.304Z,31.85
2023-02-06T05:28:08.848Z,32.92
2023-02-06T05:30:36.248Z,33.22
2023-02-06T05:33:03.082Z,24.60
2023-02-06T05:35:29.907Z,19.83
2023-02-06T05:37:57.909Z,34.55
2023-02-06T05:40:25.186Z,37.42
2023-02-06T05:42:51.857Z,33.38
2023-02-06T05:45:18.588Z,20.38
2023-02-06T05:47:45.240Z,15.20
2023-02-06T05:50:11.940Z,37.40
2023-02-06T05:52:38.637Z,34.35
2023-02-06T05:55:05.845Z,30.05
2023-02-06T05:57:32.617Z,25.77
2023-02-06T05:59:59.405Z,29.92
2023-02-06T06:02:26.162Z,28.55
2023-02-06T06:04:52.854Z,38.90
2023-02-06T06:07:19.569Z,28.60
2023-02-06T06:09:46.219Z,18.92
2023-02-06T06:12:15.612Z,36.25
2023-02-06T06:14:42.326Z,27.15
2023-02-06T06:17:09.198Z,32.40
2023-02-06T06:19:36.144Z,27.50
2023-02-06T06:22:02.957Z,38.25
2023-02-06T06:24:29.703Z,55.08
2023-02-06T06:26:56.381Z,29.38
2023-02-06T06:29:23.068Z,34.15
2023-02-06T06:31:50.326Z,30.08
2023-02-06T06:34:17.206Z,21.50
2023-02-06T06:36:44.035Z,24.25
2023-02-06T06:39:10.962Z,27.85
2023-02-06T06:41:49.571Z,23.30
2023-02-06T06:44:16.259Z,19.85
2023-02-06T06:46:43.008Z,19.85
2023-02-06T06:49:09.729Z,15.73
2023-02-06T06:51:36.488Z,26.85
2023-02-06T06:54:03.143Z,21.77
2023-02-06T06:56:29.818Z,22.73
2023-02-06T06:58:56.548Z,28.00
2023-02-06T07:01:23.330Z,25.60
2023-02-06T07:03:50.082Z,25.45
2023-02-06T07:06:17.580Z,22.38
2023-02-06T07:08:46.867Z,19.38
2023-02-06T07:11:15.062Z,13.55
2023-02-06T07:13:42.625Z,15.57
2023-02-06T07:16:09.675Z,18.50
2023-02-06T07:18:36.387Z,24.00
2023-02-06T07:21:04.152Z,12.02
2023-02-06T07:23:31.112Z,14.23
2023-02-06T07:26:02.209Z,13.05
2023-02-06T07:28:29.754Z,12.88
2023-02-06T07:31:03.728Z,24.70
2023-02-06T07:33:30.965Z,13.10
2023-02-06T07:35:58.356Z,17.63
2023-02-06T07:38:25.447Z,15.30
2023-02-06T07:40:52.218Z,17.05
2023-02-06T07:43:19.006Z,18.30
2023-02-06T07:45:45.794Z,20.23
2023-02-06T07:48:12.533Z,10.68
2023-02-06T07:50:39.399Z,26.65
2023-02-06T07:53:06.287Z,18.58
2023-02-06T07:55:35.097Z,12.90
2023-02-06T07:58:02.112Z,13.75
2023-02-06T08:00:28.914Z,16.17
2023-02-06T08:02:55.535Z,17.00
2023-02-06T08:05:22.184Z,23.08
2023-02-06T08:07:51.264Z,17.27
2023-02-06T08:10:18.039Z,22.60
2023-02-06T08:12:45.022Z,17.70
2023-02-06T08:15:11.716Z,16.17
2023-02-06T08:17:38.355Z,20.65
2023-02-06T08:20:05.219Z,12.48
2023-02-06T08:22:32.111Z,16.77
2023-02-06T08:24:58.774Z,21.80
2023-02-06T08:27:25.487Z,20.42
2023-02-06T08:29:52.287Z,31.17
2023-02-06T08:32:19.245Z,29.00
2023-02-06T08:34:45.925Z,18.23
2023-02-06T08:37:12.973Z,24.50
2023-02-06T08:39:39.799Z,23.20
2023-02-06T08:42:06.560Z,28.23
2023-02-06T08:44:33.311Z,26.05
2023-02-06T08:47:09.607Z,26.98
2023-02-06T08:49:37.322Z,27.65
2023-02-06T08:52:04.106Z,27.90
2023-02-06T08:54:32.237Z,25.08
2023-02-06T08:57:01.124Z,21.67
2023-02-06T08:59:30.937Z,27.00
2023-02-06T09:01:57.622Z,33.53
2023-02-06T09:04:24.453Z,26.55
2023-02-06T09:06:52.172Z,34.72
2023-02-06T09:09:19.232Z,27.90
2023-02-06T09:11:46.063Z,34.58
2023-02-06T09:14:16.066Z,26.50
2023-02-06T09:16:43.354Z,32.00
2023-02-06T09:19:11.382Z,39.80
2023-02-06T09:21:38.161Z,24.00
2023-02-06T09:24:07.551Z,36.35
2023-02-06T09:26:40.559Z,31.08
2023-02-06T09:29:12.349Z,41.00
2023-02-06T09:31:41.396Z,35.25
2023-02-06T09:34:09.312Z,39.58
2023-02-06T09:36:37.502Z,44.55
2023-02-06T09:39:06.947Z,46.70
2023-02-06T09:41:55.182Z,36.45
2023-02-06T09:44:27.635Z,35.50
2023-02-06T09:47:25.039Z,41.92
2023-02-06T09:50:07.840Z,50.33
2023-02-06T09:53:03.226Z,51.28
2023-02-06T09:58:22.476Z,57.33
2023-02-06T10:00:53.520Z,48.15
2023-02-06T10:04:00.137Z,53.67
2023-02-06T10:06:50.165Z,57.45
2023-02-06T10:09:31.749Z,49.78
2023-02-06T10:12:29.010Z,43.65
2023-02-06T10:15:07.044Z,50.08
2023-02-06T10:17:53.453Z,47.72
2023-02-06T10:20:32.729Z,49.40
2023-02-06T10:23:12.815Z,52.83
2023-02-06T10:25:49.816Z,58.45
2023-02-06T10:28:28.754Z,52.75
2023-02-06T10:31:30.397Z,43.67
2023-02-06T10:34:00.392Z,65.00
2023-02-06T10:36:36.058Z,58.72
2023-02-06T10:39:42.265Z,60.33
2023-02-06T10:42:16.646Z,55.97
2023-02-06T10:45:17.183Z,52.65
2023-02-06T10:47:57.552Z,52.58
2023-02-06T10:50:49.152Z,47.22
2023-02-06T10:53:36.462Z,39.05
2023-02-06T10:56:04.601Z,55.30
2023-02-06T10:58:45.757Z,36.30
2023-02-06T11:01:25.599Z,40.95
2023-02-06T11:03:57.614Z,47.85
2023-02-06T11:06:26.311Z,42.90
2023-02-06T11:08:53.213Z,48.45
2023-02-06T11:11:31.970Z,46.92
2023-02-06T11:14:07.234Z,34.92
2023-02-06T11:16:37.466Z,44.88
2023-02-06T11:19:44.215Z,36.67
2023-02-06T11:22:16.321Z,35.85
2023-02-06T11:25:07.721Z,25.92
2023-02-06T11:27:36.538Z,38.33
2023-02-06T11:30:27.848Z,33.63
2023-02-06T11:33:19.805Z,32.13
2023-02-06T11:35:53.400Z,37.35
2023-02-06T11:38:22.967Z,24.73
2023-02-06T11:41:17.268Z,25.67
2023-02-06T11:43:43.901Z,30.55
2023-02-06T11:46:26.733Z,25.42
2023-02-06T11:48:56.466Z,22.70
2023-02-06T11:51:26.781Z,29.27
2023-02-06T11:54:00.984Z,20.80
2023-02-06T11:56:31.072Z,17.55
2023-02-06T11:59:23.140Z,14.73
2023-02-06T12:01:50.556Z,21.70
2023-02-06T12:04:23.773Z,22.27
2023-02-06T12:07:01.220Z,29.88
2023-02-06T12:09:28.340Z,22.92
2023-02-06T12:12:25.676Z,23.33
2023-02-06T12:14:57.742Z,14.80
2023-02-06T12:17:28.564Z,24.52
2023-02-06T12:20:04.918Z,22.85
2023-02-06T12:22:36.669Z,22.02
2023-02-06T12:25:04.963Z,32.08
2023-02-06T12:27:39.382Z,25.63
2023-02-06T12:30:31.766Z,22.75
2023-02-06T12:33:33.204Z,24.63
2023-02-06T12:36:07.514Z,26.13
2023-02-06T12:38:47.312Z,25.55
2023-02-06T12:41:42.112Z,21.75
2023-02-06T12:44:37.466Z,12.23
2023-02-06T12:47:24.971Z,22.60
2023-02-06T12:50:05.279Z,21.70
2023-02-06T12:52:50.243Z,15.57
2023-02-06T12:55:19.802Z,28.15
2023-02-06T12:57:46.668Z,21.60
2023-02-06T13:00:40.312Z,18.30
2023-02-06T13:03:20.928Z,26.30
2023-02-06T13:06:08.054Z,21.23
2023-02-06T13:09:03.613Z,26.23
2023-02-06T13:11:40.474Z,24.42
2023-02-06T13:14:17.989Z,17.90
2023-02-06T13:16:58.941Z,19.90
2023-02-06T13:19:36.635Z,17.90
2023-02-06T13:22:09.392Z,15.35
2023-02-06T13:24:41.403Z,24.08
2023-02-06T13:27:07.985Z,26.27
2023-02-06T13:29:39.688Z,18.33
2023-02-06T13:32:12.518Z,24.98
2023-02-06T13:34:51.268Z,28.02
2023-02-06T13:37:33.024Z,19.90
2023-02-06T13:40:25.761Z,15.27
2023-02-06T13:43:02.486Z,17.38
2023-02-06T13:45:42.688Z,17.23
2023-02-06T13:48:28.281Z,10.32
2023-02-06T13:51:05.134Z,18.48
2023-02-06T13:53:50.038Z,21.30
2023-02-06T13:56:41.945Z,22.63
2023-02-06T13:59:20.299Z,26.02
2023-02-06T14:01:47.059Z,22.98
2023-02-06T14:04:27.217Z,17.70
2023-02-06T14:07:25.242Z,18.13
2023-02-06T14:10:31.319Z,7.35
2023-02-06T14:13:28.476Z,15.98
2023-02-06T14:16:03.719Z,16.50
2023-02-06T14:18:42.454Z,30.88
2023-02-06T14:21:27.658Z,25.27
2023-02-06T14:24:31.952Z,21.50
2023-02-06T14:27:16.523Z,19.02
2023-02-06T14:30:12.726Z,18.95
2023-02-06T14:32:44.139Z,13.77
2023-02-06T14:35:39.397Z,10.82
2023-02-06T14:40:42.438Z,12.02
2023-02-06T14:43:16.743Z,15.50
2023-02-06T14:45:56.902Z,15.68
2023-02-06T14:48:43.121Z,19.00
2023-02-06T14:51:24.727Z,17.13
2023-02-06T14:53:54.676Z,20.95
2023-02-06T14:56:39.992Z,18.85
2023-02-06T14:59:12.624Z,24.83
2023-02-06T15:01:40.587Z,11.60
2023-02-06T15:04:19.644Z,13.63
2023-02-06T15:06:58.632Z,20.42
2023-02-06T15:09:31.448Z,16.80
2023-02-06T15:12:00.961Z,15.38
2023-02-06T15:14:33.470Z,16.25
2023-02-06T15:17:02.404Z,15.10
2023-02-06T15:19:31.429Z,12.75
2023-02-06T15:22:02.390Z,18.95
2023-02-06T15:24:35.344Z,15.13
2023-02-06T15:27:24.416Z,17.65
2023-02-06T15:29:51.830Z,18.52
2023-02-06T15:32:39.445Z,10.55
2023-02-06T15:35:33.021Z,14.18
2023-02-06T15:38:11.297Z,16.73
2023-02-06T15:40:42.112Z,17.35
2023-02-06T15:43:19.932Z,12.88
2023-02-06T15:45:47.984Z,25.33
2023-02-06T15:48:37.046Z,27.00
2023-02-06T15:51:25.298Z,14.80
2023-02-06T15:54:05.599Z,17.48
2023-02-06T15:56:35.553Z,18.08
2023-02-06T15:59:06.100Z,18.40
2023-02-06T16:01:38.277Z,15.18
2023-02-06T16:04:32.373Z,19.90
2023-02-06T16:07:02.819Z,12.65
2023-02-06T16:09:41.434Z,20.23
2023-02-06T16:12:09.112Z,20.27
2023-02-06T16:14:37.657Z,16.85
2023-02-06T16:17:10.626Z,14.93
2023-02-06T16:19:47.702Z,15.68
2023-02-06T16:22:27.375Z,14.00
2023-02-06T16:25:17.930Z,10.32
2023-02-06T16:31:04.741Z,13.32
2023-02-06T16:35:45.332Z,15.55
2023-02-06T16:36:55.580Z,11.00
2023-02-06T16:42:36.585Z,19.80
2023-02-06T16:45:24.209Z,13.57
2023-02-06T16:48:04.804Z,15.40
2023-02-06T16:53:33.685Z,12.00
2023-02-06T16:56:00.398Z,8.80
2023-02-06T16:58:30.170Z,18.05
2023-02-06T17:00:56.933Z,16.05
2023-02-06T17:03:23.858Z,8.75
2023-02-06T17:05:54.651Z,16.08
2023-02-06T17:08:23.834Z,18.33
2023-02-06T17:10:50.916Z,10.15
2023-02-06T17:13:24.718Z,10.38
2023-02-06T17:15:54.612Z,14.57
2023-02-06T17:18:22.988Z,17.23
2023-02-06T17:20:52.814Z,13.77
2023-02-06T17:23:20.239Z,14.48
2023-02-06T17:25:47.028Z,13.10
2023-02-06T17:28:17.946Z,18.40
2023-02-06T17:30:45.680Z,19.38
2023-02-06T17:33:12.666Z,11.00
2023-02-06T17:35:39.424Z,16.20
2023-02-06T17:38:08.054Z,14.13
2023-02-06T17:40:37.030Z,13.95
2023-02-06T17:43:04.791Z,15.70
2023-02-06T17:45:32.040Z,17.17
2023-02-06T17:47:58.964Z,22.20
2023-02-06T17:50:29.910Z,23.52
2023-02-06T17:52:58.809Z,14.70
2023-02-06T17:55:27.197Z,15.40
2023-02-06T17:57:54.457Z,12.77
2023-02-06T18:00:29.324Z,15.10
2023-02-06T18:02:58.380Z,25.85
2023-02-06T18:05:25.337Z,16.85
2023-02-06T18:07:52.382Z,14.43
2023-02-06T18:10:21.834Z,15.07
2023-02-06T18:12:48.988Z,14.52
2023-02-06T18:15:16.550Z,17.13
2023-02-06T18:17:43.366Z,17.50
2023-02-06T18:20:11.688Z,28.30
2023-02-06T18:22:41.320Z,20.35
2023-02-06T18:25:16.139Z,17.48
2023-02-06T18:27:48.055Z,21.83
2023-02-06T18:30:15.542Z,10.55
2023-02-06T18:32:42.330Z,19.13
2023-02-06T18:35:09.415Z,18.08
2023-02-06T18:37:36.463Z,11.35
2023-02-06T18:40:04.204Z,13.07
2023-02-06T18:42:49.641Z,23.80
2023-02-06T18:45:16.968Z,20.67
2023-02-06T18:47:47.661Z,15.68
2023-02-06T18:50:20.603Z,16.98
2023-02-06T18:52:48.475Z,16.95
2023-02-06T18:55:16.258Z,17.70
2023-02-06T18:57:42.984Z,14.07
2023-02-06T19:00:11.860Z,20.60
2023-02-06T19:02:38.609Z,22.05
2023-02-06T19:05:05.417Z,13.70
2023-02-06T19:07:32.276Z,14.60
2023-02-06T19:10:00.638Z,15.88
2023-02-06T19:12:28.956Z,20.75
2023-02-06T19:14:56.429Z,22.42
2023-02-06T19:17:24.489Z,14.00
2023-02-06T19:19:51.630Z,24.65
2023-02-06T19:22:18.365Z,18.10
2023-02-06T19:24:45.134Z,26.85
2023-02-06T19:27:13.262Z,21.80
2023-02-06T19:29:40.140Z,23.15
2023-02-06T19:32:08.673Z,22.20
2023-02-06T19:34:38.151Z,19.35
2023-02-06T19:37:06.357Z,21.08
2023-02-06T19:39:34.344Z,27.33
2023-02-06T19:42:02.289Z,19.45
2023-02-06T19:44:29.173Z,14.93
2023-02-06T19:46:56.731Z,14.30
2023-02-06T19:49:24.530Z,18.60
2023-02-06T19:51:51.359Z,19.45
2023-02-06T19:54:18.655Z,14.70
2023-02-06T19:56:48.998Z,17.70
2023-02-06T19:59:25.426Z,17.35
2023-02-06T20:02:00.927Z,12.75
2023-02-06T20:04:34.611Z,13.88
2023-02-06T20:07:02.186Z,15.98
2023-02-06T20:09:29.773Z,18.02
2023-02-06T20:11:56.987Z,11.65
2023-02-06T20:14:25.459Z,22.38
2023-02-06T20:16:52.310Z,10.32
2023-02-06T20:19:22.541Z,12.52
2023-02-06T20:21:53.579Z,21.90
2023-02-06T20:24:23.569Z,13.68
2023-02-06T20:26:55.739Z,13.20
2023-02-06T20:29:31.715Z,18.55
2023-02-06T20:31:59.599Z,12.23
2023-02-06T20:34:27.236Z,22.80
2023-02-06T20:36:54.818Z,17.42
2023-02-06T20:39:22.012Z,14.40
2023-02-06T20:41:50.273Z,14.60
2023-02-06T20:44:18.016Z,19.98
2023-02-06T20:46:44.972Z,21.20
2023-02-06T20:49:21.157Z,15.63
2023-02-06T20:51:49.381Z,17.40
2023-02-06T20:54:16.531Z,15.00
2023-02-06T20:56:43.302Z,11.52
2023-02-06T20:59:13.994Z,16.90
2023-02-06T21:01:41.840Z,12.27
2023-02-06T21:04:11.284Z,12.27
2023-02-06T21:06:39.128Z,11.45
2023-02-06T21:09:07.623Z,10.68
2023-02-06T21:11:42.228Z,10.00
2023-02-06T21:16:37.951Z,12.15
2023-02-06T21:19:09.436Z,22.67
2023-02-06T21:21:37.220Z,17.92
2023-02-06T21:24:04.622Z,14.23
2023-02-06T21:26:32.609Z,21.67
2023-02-06T21:28:59.882Z,17.67
2023-02-06T21:31:36.128Z,13.35
2023-02-06T21:34:09.097Z,14.27
2023-02-06T21:36:37.693Z,14.30
2023-02-06T21:39:04.849Z,22.73
2023-02-06T21:41:32.756Z,19.63
2023-02-06T21:43:59.751Z,12.80
2023-02-06T21:46:26.609Z,23.33
2023-02-06T21:48:54.029Z,24.58
2023-02-06T21:51:21.625Z,16.52
2023-02-06T21:53:48.523Z,21.67
2023-02-06T21:56:20.832Z,26.75
2023-02-06T21:58:48.321Z,21.38
2023-02-06T22:01:17.025Z,14.38
2023-02-06T22:03:45.550Z,23.83
2023-02-06T22:06:13.683Z,19.30
2023-02-06T22:08:43.438Z,21.85
2023-02-06T22:11:12.727Z,25.30
2023-02-06T22:13:39.710Z,17.08
2023-02-06T22:16:08.077Z,15.95
2023-02-06T22:18:35.043Z,16.58
2023-02-06T22:21:14.002Z,15.98
2023-02-06T22:23:41.356Z,17.85
2023-02-06T22:26:10.185Z,21.48
2023-02-06T22:28:37.267Z,15.10
2023-02-06T22:31:14.067Z,8.40
2023-02-06T22:33:41.470Z,9.65
2023-02-06T22:36:11.326Z,9.60
2023-02-06T22:38:39.159Z,13.70
2023-02-06T22:41:10.299Z,11.32
2023-02-06T22:43:38.614Z,12.77
2023-02-06T22:46:07.000Z,20.20
2023-02-06T22:48:34.271Z,11.65
2023-02-06T22:51:09.693Z,16.60
2023-02-06T22:53:42.898Z,15.45
2023-02-06T22:56:29.502Z,16.60
2023-02-06T22:59:24.533Z,20.05
2023-02-06T23:01:54.869Z,16.77
2023-02-06T23:04:30.330Z,26.35
2023-02-06T23:06:57.631Z,18.25
2023-02-06T23:09:27.273Z,12.63
2023-02-06T23:11:54.559Z,19.75
2023-02-06T23:14:21.652Z,16.25
2023-02-06T23:16:48.539Z,16.35
2023-02-06T23:19:17.300Z,23.42
2023-02-06T23:21:46.299Z,19.23
2023-02-06T23:24:15.934Z,16.17
2023-02-06T23:26:45.084Z,23.17
2023-02-06T23:29:15.941Z,19.77
2023-02-06T23:31:43.523Z,25.55
2023-02-06T23:34:10.906Z,19.25
2023-02-06T23:36:43.292Z,16.35
2023-02-06T23:39:11.854Z,19.67
2023-02-06T23:41:41.189Z,20.67
2023-02-06T23:44:17.050Z,17.38
2023-02-06T23:46:43.732Z,22.67
2023-02-06T23:49:10.694Z,17.08
2023-02-06T23:51:40.790Z,25.90
2023-02-06T23:54:08.537Z,20.20
2023-02-06T23:56:35.847Z,18.73
2023-02-06T23:59:03.879Z,18.65
